KBBF

Brazos 133

Brazos 133, Texas, USA
METAR KBBF 251435Z AUTO 21017KT 10SM FEW023 29/24 A2994 RMK A01
Observed Flight Rules
Sep-25 @ 14:35 UTC (31 minutes ago) Visual Flight Rules
Wind Visibility Clouds
210° at 17 knots 10 miles
  • Few at 2,300' AGL
Temperatures Readings
Current 29°C / 84°F
Dewpoint 24°C / 75°F
Humidity 74%
Altimeter 29.94" Hg
Pressure 1014 hPa
Elevation 36
METAR KBBF 251435Z AUTO 21017KT 10SM FEW023 29/24 A2994 RMK A01
Observed Flight Rules
Sep-25 @ 14:35 UTC
(31 minutes ago)
VFR
Wind Visibility
210° at 17 knots 10 miles
Clouds
  • Few at 2,300' AGL
Temperature Dewpoint
29°C / 84°F 24°C / 75°F
Humidity Altimeter Pressure
74% 29.94" Hg 1014 hPa